Colorado Star — 9HA2189 — position and weather

sailwx.info

Track history (hours):
 
Tides and Currents Weather Stations Pressure Air Temp Water Temp Dewpoint Dewpoint Depression Visibility Wind Speed Wind Dir Waves Ship Positions

Colorado Star

Last reported at 2014-Oct-30 17:30 UTC. Time now 2014-Oct-30 18:20 UTC.
Position N 51°25' E 002°38'.

Length 128 m; draft 6.2 m.

Type: Ship. MMSI: 248127000.

Date/timePositionNaut miles runAvg speedWind from/ knotsBaromVisibWave heightAir tempDewpointWater temp
2014-Oct-30 17:30N 51°25' E 002°38'0 0.0
2014-Oct-30 16:33N 51°25' E 002°38'0 0.0
2014-Oct-30 15:33N 51°25' E 002°38'0 0.0
2014-Oct-30 14:33N 51°25' E 002°38'0 0.2
2014-Oct-30 13:33N 51°25' E 002°38'0 0.0
2014-Oct-30 12:33N 51°25' E 002°38'0 0.0
2014-Oct-30 11:33N 51°25' E 002°38'0 0.1
2014-Oct-30 10:33N 51°25' E 002°38'0 0.1
2014-Oct-30 09:33N 51°25' E 002°38'0 0.0
2014-Oct-30 08:33N 51°25' E 002°38'0 0.0
2014-Oct-30 07:33N 51°25' E 002°38'0 0.0
2014-Oct-30 06:27N 51°25' E 002°38'0 0.0
2014-Oct-30 05:33N 51°25' E 002°38'0 0.0
2014-Oct-30 04:24N 51°25' E 002°38'4 3.7
2014-Oct-30 03:22N 51°22' E 002°34'1313.1
2014-Oct-30 02:24N 51°18' E 002°15'910.7
2014-Oct-30 01:33N 51°13' E 002°02'9 9.3
2014-Oct-30 00:33N 51°09' E 001°49'8 8.1
2014-Oct-29 23:34N 51°04' E 001°39'8 7.6
2014-Oct-29 22:33N 50°59' E 001°30'8 7.7
2014-Oct-29 21:33N 50°51' E 001°25'11 8.5
2014-Oct-29 20:18N 50°41' E 001°20'  
Track history (hours):
 
Tides and Currents Weather Stations Pressure Air Temp Water Temp Dewpoint Dewpoint Depression Visibility Wind Speed Wind Dir Waves Ship Positions

Colorado Star

Last reported at 2014-Oct-30 17:30 UTC. Time now 2014-Oct-30 18:20 UTC.
Position N 51°25' E 002°38'.

Length 128 m; draft 6.2 m.

Type: Ship. MMSI: 248127000.

Date/timePositionNaut miles runAvg speedWind from/ knotsBaromVisibWave heightAir tempDewpointWater temp
2014-Oct-30 17:30N 51°25' E 002°38'0 0.0
2014-Oct-30 16:33N 51°25' E 002°38'0 0.0
2014-Oct-30 15:33N 51°25' E 002°38'0 0.0
2014-Oct-30 14:33N 51°25' E 002°38'0 0.2
2014-Oct-30 13:33N 51°25' E 002°38'0 0.0
2014-Oct-30 12:33N 51°25' E 002°38'0 0.0
2014-Oct-30 11:33N 51°25' E 002°38'0 0.1
2014-Oct-30 10:33N 51°25' E 002°38'0 0.1
2014-Oct-30 09:33N 51°25' E 002°38'0 0.0
2014-Oct-30 08:33N 51°25' E 002°38'0 0.0
2014-Oct-30 07:33N 51°25' E 002°38'0 0.0
2014-Oct-30 06:27N 51°25' E 002°38'0 0.0
2014-Oct-30 05:33N 51°25' E 002°38'0 0.0
2014-Oct-30 04:24N 51°25' E 002°38'4 3.7
2014-Oct-30 03:22N 51°22' E 002°34'1313.1
2014-Oct-30 02:24N 51°18' E 002°15'910.7
2014-Oct-30 01:33N 51°13' E 002°02'9 9.3
2014-Oct-30 00:33N 51°09' E 001°49'8 8.1
2014-Oct-29 23:34N 51°04' E 001°39'8 7.6
2014-Oct-29 22:33N 50°59' E 001°30'8 7.7
2014-Oct-29 21:33N 50°51' E 001°25'11 8.5
2014-Oct-29 20:18N 50°41' E 001°20'  

Dump ship's entire track history